Time;durP1;ratioP1;P1;durP2;ratioP2;P2;SDS_P1;SDS_P2;PMS_P1;PMS_P2;Temp;Humidity;BMP_temperature;BMP_pressure;BME280_temperature;BME280_humidity;BME280_pressure;Samples;Min_cycle;Max_cycle;Signal;HPM_P1;HPM_P2
2023/12/28 00:00:41;;;;;;;6.78;3.05;;;8.60;99.90;;;;;;5010188;28;20089;-82
2023/12/28 00:03:07;;;;;;;9.52;3.72;;;8.60;99.90;;;;;;5004957;28;20070;-80
2023/12/28 00:05:33;;;;;;;5.90;3.22;;;8.70;99.90;;;;;;4998800;28;20490;-81
2023/12/28 00:07:59;;;;;;;6.60;3.50;;;8.90;99.90;;;;;;4999153;28;20112;-80
2023/12/28 00:10:26;;;;;;;6.53;3.15;;;8.70;99.90;;;;;;5011242;28;20050;-82
2023/12/28 00:12:51;;;;;;;5.72;3.40;;;8.70;99.90;;;;;;5008038;28;20046;-83
2023/12/28 00:15:17;;;;;;;5.95;2.97;;;8.70;99.90;;;;;;5010231;28;20496;-81
2023/12/28 00:17:43;;;;;;;8.48;3.72;;;8.80;99.90;;;;;;5008508;28;20050;-82
2023/12/28 00:20:09;;;;;;;5.90;3.60;;;8.80;99.90;;;;;;5010870;28;20045;-80
2023/12/28 00:22:37;;;;;;;7.25;3.47;;;8.70;99.90;;;;;;5010886;28;20140;-82
2023/12/28 00:25:03;;;;;;;7.57;3.30;;;8.80;99.90;;;;;;5002372;28;20128;-80
2023/12/28 00:27:29;;;;;;;6.55;3.70;;;8.80;99.90;;;;;;5009657;28;20057;-82
2023/12/28 00:29:54;;;;;;;6.75;3.45;;;9.00;99.90;;;;;;5007668;28;20046;-80
2023/12/28 00:32:20;;;;;;;6.50;3.55;;;8.80;99.90;;;;;;5009574;28;20057;-83
2023/12/28 00:34:46;;;;;;;6.65;3.55;;;9.00;99.90;;;;;;5007151;28;20521;-80
2023/12/28 00:37:11;;;;;;;7.80;3.38;;;8.80;99.90;;;;;;5010067;28;20050;-82
2023/12/28 00:39:38;;;;;;;5.93;3.90;;;8.80;99.90;;;;;;5002467;28;20466;-82
2023/12/28 00:42:04;;;;;;;6.85;3.35;;;8.80;99.90;;;;;;5010173;28;20045;-81
2023/12/28 00:44:29;;;;;;;7.60;3.42;;;8.80;99.90;;;;;;5010328;28;20592;-81
2023/12/28 00:46:55;;;;;;;8.35;3.90;;;8.80;99.90;;;;;;5005649;28;20120;-83
2023/12/28 00:49:21;;;;;;;5.95;3.63;;;8.80;99.90;;;;;;5004600;28;20045;-81
2023/12/28 00:51:46;;;;;;;7.68;3.80;;;9.10;99.90;;;;;;4998861;28;20046;-80
2023/12/28 00:54:12;;;;;;;4.82;2.90;;;8.80;99.90;;;;;;5006345;28;20089;-81
2023/12/28 00:56:37;;;;;;;5.50;3.22;;;8.80;99.90;;;;;;5007750;28;20038;-81
2023/12/28 00:59:03;;;;;;;11.38;3.75;;;8.80;99.90;;;;;;5002209;28;20104;-83
2023/12/28 01:01:30;;;;;;;9.75;3.83;;;8.80;99.90;;;;;;5001942;28;20422;-80
2023/12/28 01:03:56;;;;;;;8.90;3.95;;;8.80;99.90;;;;;;5024245;28;20571;-80
2023/12/28 01:06:22;;;;;;;6.90;3.28;;;8.80;99.90;;;;;;5007635;28;20046;-80
2023/12/28 01:08:48;;;;;;;7.32;3.85;;;8.80;99.90;;;;;;5007780;28;20053;-80
2023/12/28 01:11:13;;;;;;;8.02;3.72;;;8.80;99.90;;;;;;4998376;28;20046;-82
2023/12/28 01:13:39;;;;;;;9.38;3.67;;;8.80;99.90;;;;;;4997840;28;20040;-81
2023/12/28 01:16:05;;;;;;;9.65;4.10;;;8.80;99.90;;;;;;4993762;28;20042;-82
2023/12/28 01:18:31;;;;;;;8.77;3.67;;;8.80;99.90;;;;;;5004744;28;20042;-80
2023/12/28 01:20:56;;;;;;;8.05;3.60;;;8.80;99.90;;;;;;5005817;28;20113;-80
2023/12/28 01:23:22;;;;;;;11.68;3.70;;;8.80;99.90;;;;;;5006744;28;20042;-82
2023/12/28 01:25:47;;;;;;;7.80;3.78;;;8.70;99.90;;;;;;5000483;28;20046;-80
2023/12/28 01:28:13;;;;;;;10.63;4.03;;;8.70;99.90;;;;;;5008355;28;20042;-82
2023/12/28 01:30:39;;;;;;;7.70;4.35;;;8.70;99.90;;;;;;4998761;28;20053;-80
2023/12/28 01:33:04;;;;;;;8.63;3.90;;;8.80;99.90;;;;;;5008731;28;20065;-83
2023/12/28 01:35:30;;;;;;;9.63;3.60;;;8.70;99.90;;;;;;5004224;28;20402;-82
2023/12/28 01:37:57;;;;;;;7.95;3.67;;;8.60;99.90;;;;;;5006948;28;20084;-79
2023/12/28 01:40:23;;;;;;;8.35;3.53;;;8.80;99.90;;;;;;5002356;28;20060;-81
2023/12/28 01:42:48;;;;;;;8.75;4.22;;;8.60;99.90;;;;;;5008994;28;20045;-80
2023/12/28 01:45:14;;;;;;;7.75;3.42;;;8.60;99.90;;;;;;5009140;28;20493;-81
2023/12/28 01:47:40;;;;;;;8.20;3.67;;;8.60;99.90;;;;;;5007009;28;20057;-82
2023/12/28 01:50:07;;;;;;;12.65;4.10;;;8.60;99.90;;;;;;5008497;28;20077;-79
2023/12/28 01:52:33;;;;;;;9.13;3.50;;;8.70;99.90;;;;;;5008246;28;20049;-82
2023/12/28 01:54:59;;;;;;;7.45;3.95;;;8.60;99.90;;;;;;5006941;28;20045;-80
2023/12/28 01:57:25;;;;;;;9.13;3.63;;;8.60;99.90;;;;;;5011678;28;20493;-82
2023/12/28 01:59:52;;;;;;;8.80;3.67;;;8.70;99.90;;;;;;4999710;28;20056;-82
2023/12/28 02:02:18;;;;;;;9.10;3.33;;;8.60;99.90;;;;;;5007957;28;20465;-79
2023/12/28 02:04:44;;;;;;;7.03;4.15;;;8.60;99.90;;;;;;5008443;28;20045;-81
2023/12/28 02:07:12;;;;;;;9.02;3.80;;;8.70;99.90;;;;;;4997925;28;20049;-83
2023/12/28 02:09:38;;;;;;;8.48;3.53;;;8.60;99.90;;;;;;5002875;28;20516;-80
2023/12/28 02:12:04;;;;;;;9.98;3.47;;;8.60;99.90;;;;;;4999207;28;20045;-82
2023/12/28 02:14:30;;;;;;;10.05;3.22;;;8.60;99.90;;;;;;5004791;28;20052;-81
2023/12/28 02:17:15;;;;;;;10.13;3.72;;;8.70;99.90;;;;;;5008606;28;20133;-80
2023/12/28 02:19:48;;;;;;;13.35;3.38;;;8.70;99.90;;;;;;5000385;28;20053;-82
2023/12/28 02:22:18;;;;;;;8.38;3.15;;;8.70;99.90;;;;;;5000620;28;20058;-81
2023/12/28 02:25:06;;;;;;;14.73;3.40;;;8.70;99.90;;;;;;5005388;28;20145;-84
2023/12/28 02:27:43;;;;;;;12.40;3.35;;;8.70;99.90;;;;;;4995687;28;20068;-83
2023/12/28 02:30:10;;;;;;;12.02;4.28;;;8.70;99.90;;;;;;4994627;28;20059;-80
2023/12/28 02:32:40;;;;;;;9.07;2.92;;;8.70;99.90;;;;;;5006457;28;20061;-80
2023/12/28 02:35:35;;;;;;;11.73;3.15;;;8.70;99.90;;;;;;5008865;28;20449;-79
2023/12/28 02:38:09;;;;;;;12.60;3.53;;;8.70;99.90;;;;;;5000236;28;20421;-83
2023/12/28 02:40:39;;;;;;;;;;;8.80;99.90;;;;;;5008495;28;20080;-80
2023/12/28 02:43:08;;;;;;;16.83;3.22;;;8.80;99.90;;;;;;4994641;28;19926;-82
2023/12/28 02:45:34;;;;;;;12.20;3.35;;;8.90;99.90;;;;;;4990536;28;20081;-82
2023/12/28 02:48:00;;;;;;;10.30;3.40;;;8.80;99.90;;;;;;5006387;28;20053;-83
2023/12/28 02:50:26;;;;;;;10.60;3.72;;;8.90;99.90;;;;;;4997988;28;20057;-80
2023/12/28 02:52:52;;;;;;;8.75;3.03;;;8.90;99.90;;;;;;5001107;28;20050;-83
2023/12/28 02:55:17;;;;;;;10.20;2.97;;;8.90;99.90;;;;;;5000456;28;20042;-80
2023/12/28 02:57:44;;;;;;;10.75;3.53;;;8.90;99.90;;;;;;5008357;28;20050;-80
2023/12/28 03:00:11;;;;;;;13.13;3.20;;;9.00;99.90;;;;;;5002291;28;20129;-82
2023/12/28 03:02:37;;;;;;;7.15;2.70;;;9.00;99.90;;;;;;5009409;28;20049;-80
2023/12/28 03:05:07;;;;;;;10.98;3.17;;;9.10;99.90;;;;;;5004087;28;20078;-82
2023/12/28 03:07:33;;;;;;;9.55;2.97;;;9.10;99.90;;;;;;4992253;28;20080;-81
2023/12/28 03:09:59;;;;;;;10.88;2.80;;;9.10;99.90;;;;;;5001494;28;20042;-80
2023/12/28 03:12:25;;;;;;;9.25;2.80;;;9.20;99.90;;;;;;5008644;28;20084;-83
2023/12/28 03:14:51;;;;;;;11.35;2.88;;;9.30;99.90;;;;;;4997198;28;20522;-81
2023/12/28 03:17:16;;;;;;;13.68;2.85;;;9.20;99.90;;;;;;4992426;28;20050;-83
2023/12/28 03:19:42;;;;;;;7.32;2.30;;;9.30;99.90;;;;;;5003937;28;20100;-82
2023/12/28 03:22:08;;;;;;;14.65;3.20;;;9.30;99.90;;;;;;4995572;28;20058;-80
2023/12/28 03:24:33;;;;;;;20.25;2.60;;;9.30;99.90;;;;;;5006663;28;20046;-81
2023/12/28 03:26:59;;;;;;;14.63;3.05;;;9.30;99.90;;;;;;5000682;28;20054;-80
2023/12/28 03:29:25;;;;;;;9.07;2.60;;;9.50;99.90;;;;;;5010714;28;20042;-82
2023/12/28 03:31:50;;;;;;;9.25;2.60;;;9.40;99.90;;;;;;5010893;28;20058;-82
2023/12/28 03:34:17;;;;;;;10.23;2.40;;;9.40;99.90;;;;;;5001072;28;20054;-80
2023/12/28 03:36:43;;;;;;;10.00;2.20;;;9.30;99.90;;;;;;4998152;28;20172;-81
2023/12/28 03:39:08;;;;;;;11.18;2.83;;;9.40;99.90;;;;;;5008718;28;20507;-80
2023/12/28 03:41:34;;;;;;;8.65;2.17;;;9.40;99.90;;;;;;5007101;28;20057;-82
2023/12/28 03:44:00;;;;;;;9.75;2.42;;;9.40;99.90;;;;;;5011546;28;20057;-80
2023/12/28 03:46:26;;;;;;;11.20;2.72;;;9.50;99.90;;;;;;5008909;28;20046;-80
2023/12/28 03:48:52;;;;;;;13.95;2.35;;;9.50;99.90;;;;;;5008198;28;20116;-83
2023/12/28 03:51:18;;;;;;;10.13;2.53;;;9.50;99.90;;;;;;5010465;28;20096;-80
2023/12/28 03:53:44;;;;;;;13.43;2.97;;;9.50;99.90;;;;;;5010860;28;20125;-83
2023/12/28 03:56:22;;;;;;;8.80;2.17;;;9.50;99.90;;;;;;5008951;28;20421;-82
2023/12/28 03:58:47;;;;;;;8.80;2.15;;;9.60;99.90;;;;;;4999339;28;20062;-80
2023/12/28 04:01:13;;;;;;;5.95;1.98;;;9.80;99.90;;;;;;5008845;28;20107;-81
2023/12/28 04:03:39;;;;;;;12.20;2.50;;;9.50;99.90;;;;;;5015829;28;20084;-80
2023/12/28 04:06:05;;;;;;;8.20;2.50;;;9.50;99.90;;;;;;4998184;28;20050;-83
2023/12/28 04:08:31;;;;;;;8.25;2.35;;;9.60;99.90;;;;;;4997718;28;20049;-82
2023/12/28 04:10:56;;;;;;;15.93;3.40;;;9.50;99.90;;;;;;5005415;28;20103;-80
2023/12/28 04:13:22;;;;;;;11.02;2.40;;;9.60;99.90;;;;;;5005564;28;20049;-83
2023/12/28 04:15:47;;;;;;;8.32;1.90;;;9.50;99.90;;;;;;5011347;28;20042;-80
2023/12/28 04:18:13;;;;;;;11.02;3.50;;;9.60;99.90;;;;;;5010843;28;20493;-80
2023/12/28 04:20:41;;;;;;;8.32;2.00;;;9.60;99.90;;;;;;5010170;28;20501;-82
2023/12/28 04:23:07;;;;;;;9.13;2.33;;;9.60;99.90;;;;;;5024423;28;20042;-80
2023/12/28 04:25:33;;;;;;;10.88;2.33;;;9.70;99.90;;;;;;5009109;28;20115;-80
2023/12/28 04:27:58;;;;;;;12.23;2.63;;;9.60;99.90;;;;;;5009067;28;20070;-80
2023/12/28 04:30:24;;;;;;;10.95;2.47;;;9.60;99.90;;;;;;5009866;28;20136;-82
2023/12/28 04:32:49;;;;;;;14.70;2.33;;;9.60;99.90;;;;;;5007831;28;20403;-82
2023/12/28 04:35:15;;;;;;;7.22;2.53;;;9.60;99.90;;;;;;5001856;28;20053;-82
2023/12/28 04:37:41;;;;;;;13.05;2.65;;;9.70;99.90;;;;;;5005826;28;20054;-82
2023/12/28 04:40:08;;;;;;;9.68;2.40;;;9.70;99.90;;;;;;4993706;28;20497;-80
2023/12/28 04:42:34;;;;;;;9.38;2.42;;;9.60;99.90;;;;;;4993370;28;20575;-81
2023/12/28 04:44:59;;;;;;;10.65;2.28;;;9.70;99.90;;;;;;4995216;28;20479;-83
2023/12/28 04:47:25;;;;;;;14.70;2.63;;;9.70;99.90;;;;;;5010632;28;20045;-81
2023/12/28 04:49:51;;;;;;;15.05;2.65;;;9.80;99.90;;;;;;4992058;28;20046;-82
2023/12/28 04:52:16;;;;;;;12.10;2.40;;;9.80;99.90;;;;;;5004133;28;20564;-80
2023/12/28 04:54:42;;;;;;;11.40;2.25;;;9.70;99.90;;;;;;5008152;28;20064;-83
2023/12/28 04:57:08;;;;;;;11.23;2.30;;;9.80;99.90;;;;;;4993630;28;20053;-80
2023/12/28 04:59:41;;;;;;;10.25;2.15;;;10.10;99.90;;;;;;5010016;28;20088;-80
2023/12/28 05:02:07;;;;;;;16.00;3.25;;;9.80;99.90;;;;;;5008851;28;20446;-80
2023/12/28 05:04:37;;;;;;;13.02;2.35;;;9.80;99.90;;;;;;5009698;28;20049;-80
2023/12/28 05:07:02;;;;;;;18.40;3.15;;;9.80;99.90;;;;;;4999010;28;20079;-81
2023/12/28 05:09:28;;;;;;;13.30;2.38;;;9.80;99.90;;;;;;4996955;28;20058;-79
2023/12/28 05:11:54;;;;;;;18.08;2.67;;;9.80;99.90;;;;;;5004614;28;20038;-81
2023/12/28 05:14:19;;;;;;;12.18;2.97;;;9.80;99.90;;;;;;5009259;28;20449;-81
2023/12/28 05:16:45;;;;;;;11.77;2.83;;;9.80;99.90;;;;;;5010143;28;20054;-82
2023/12/28 05:19:10;;;;;;;10.88;2.75;;;9.90;99.90;;;;;;5001019;28;20073;-81
2023/12/28 05:21:36;;;;;;;8.60;2.10;;;9.90;99.90;;;;;;5008189;28;20045;-80
2023/12/28 05:24:02;;;;;;;16.42;3.42;;;9.90;99.90;;;;;;4997384;28;20484;-82
2023/12/28 05:26:27;;;;;;;14.80;2.67;;;9.90;99.90;;;;;;5002498;28;20035;-80
2023/12/28 05:28:53;;;;;;;11.05;1.90;;;9.90;99.90;;;;;;5005126;28;20104;-81
2023/12/28 05:31:19;;;;;;;13.27;2.55;;;9.90;99.90;;;;;;5005060;28;20133;-80
2023/12/28 05:33:44;;;;;;;12.27;3.28;;;10.00;99.90;;;;;;5008694;28;20132;-81
2023/12/28 05:36:10;;;;;;;13.68;2.58;;;9.90;99.90;;;;;;5004849;28;20103;-83
2023/12/28 05:38:35;;;;;;;19.05;3.25;;;9.90;99.90;;;;;;5008672;28;20043;-81
2023/12/28 05:41:01;;;;;;;14.45;2.60;;;9.90;99.90;;;;;;4996077;28;20053;-81
2023/12/28 05:43:27;;;;;;;13.82;2.97;;;10.00;99.90;;;;;;5008003;28;20088;-82
2023/12/28 05:45:53;;;;;;;10.90;2.17;;;10.10;99.90;;;;;;4999903;28;20320;-80
2023/12/28 05:48:18;;;;;;;16.80;3.08;;;10.00;99.90;;;;;;5007445;28;20403;-80
2023/12/28 05:50:44;;;;;;;13.05;2.10;;;10.00;99.90;;;;;;5008830;28;20084;-84
2023/12/28 05:53:14;;;;;;;11.85;2.03;;;10.00;99.90;;;;;;5007494;28;20041;-81
2023/12/28 05:55:43;;;;;;;14.05;2.47;;;10.00;99.90;;;;;;5006624;28;20045;-83
2023/12/28 05:58:09;;;;;;;13.43;2.40;;;10.00;99.90;;;;;;5002935;28;20471;-79
2023/12/28 06:00:38;;;;;;;14.25;2.50;;;10.10;99.90;;;;;;4991746;28;20074;-81
2023/12/28 06:03:05;;;;;;;12.23;2.85;;;10.00;99.90;;;;;;4992565;28;20042;-80
2023/12/28 06:05:31;;;;;;;14.60;2.53;;;10.00;99.90;;;;;;5001826;28;20050;-80
2023/12/28 06:07:57;;;;;;;15.07;2.40;;;10.00;99.90;;;;;;5011391;28;20084;-80
2023/12/28 06:10:24;;;;;;;14.40;2.80;;;10.00;99.90;;;;;;5011729;28;20042;-81
2023/12/28 06:12:50;;;;;;;15.05;2.63;;;10.00;99.90;;;;;;5011690;28;20050;-80
2023/12/28 06:15:15;;;;;;;14.23;2.85;;;10.00;99.90;;;;;;5011863;28;20553;-80
2023/12/28 06:17:41;;;;;;;14.93;2.70;;;10.00;99.90;;;;;;4977754;28;20046;-80
2023/12/28 06:20:08;;;;;;;16.15;2.75;;;10.00;99.90;;;;;;5004749;28;20055;-80
2023/12/28 06:22:36;;;;;;;13.80;2.22;;;10.00;99.90;;;;;;5012114;28;20057;-80
2023/12/28 06:25:03;;;;;;;11.70;2.50;;;10.00;99.90;;;;;;4998245;28;20120;-80
2023/12/28 06:27:29;;;;;;;16.75;3.38;;;10.00;99.90;;;;;;4992361;28;20088;-79
2023/12/28 06:29:54;;;;;;;11.07;2.97;;;10.20;99.90;;;;;;5008672;28;20046;-80
2023/12/28 06:32:20;;;;;;;13.38;2.58;;;10.10;99.90;;;;;;4999775;28;20051;-80
2023/12/28 06:34:46;;;;;;;16.00;2.70;;;10.10;99.90;;;;;;4992196;28;20131;-80
2023/12/28 06:37:12;;;;;;;12.88;2.65;;;10.10;99.90;;;;;;4992375;28;20042;-80
2023/12/28 06:39:38;;;;;;;14.18;2.50;;;10.10;99.90;;;;;;5015884;28;20441;-80
2023/12/28 06:42:04;;;;;;;15.48;2.22;;;10.20;99.90;;;;;;5019402;28;20050;-81
2023/12/28 06:44:30;;;;;;;13.48;2.55;;;10.10;99.90;;;;;;5011397;28;20053;-80
2023/12/28 06:46:55;;;;;;;13.77;2.55;;;10.10;99.90;;;;;;5011132;28;20518;-81
2023/12/28 06:49:21;;;;;;;12.93;2.15;;;10.10;99.90;;;;;;4998560;28;20048;-80
2023/12/28 06:51:47;;;;;;;11.48;2.42;;;10.10;99.90;;;;;;5015116;28;20088;-80
2023/12/28 06:54:15;;;;;;;16.70;3.13;;;10.10;99.90;;;;;;5014551;28;20049;-85
2023/12/28 06:56:40;;;;;;;21.92;2.63;;;10.10;99.90;;;;;;5015015;28;20061;-81
2023/12/28 06:59:06;;;;;;;12.55;2.60;;;10.10;99.90;;;;;;5015361;28;20042;-79
2023/12/28 07:01:32;;;;;;;10.30;2.10;;;10.10;99.90;;;;;;5015036;28;20099;-81
2023/12/28 07:03:59;;;;;;;9.40;1.95;;;10.10;99.90;;;;;;5015071;28;20482;-80
2023/12/28 07:06:25;;;;;;;14.77;2.83;;;10.10;99.90;;;;;;5015016;28;20054;-79
2023/12/28 07:08:50;;;;;;;12.13;2.22;;;10.10;99.90;;;;;;5008148;28;20049;-80
2023/12/28 07:11:16;;;;;;;16.65;2.35;;;10.10;99.90;;;;;;5013759;28;20363;-80
2023/12/28 07:13:42;;;;;;;13.98;2.45;;;10.10;99.90;;;;;;5014441;28;20152;-80
2023/12/28 07:16:07;;;;;;;11.48;2.35;;;10.20;99.90;;;;;;5014287;28;20129;-80
2023/12/28 07:18:33;;;;;;;17.98;3.50;;;10.30;99.90;;;;;;5000368;28;20046;-81
2023/12/28 07:21:00;;;;;;;15.93;2.20;;;10.30;99.90;;;;;;4995322;28;20046;-80
2023/12/28 07:23:26;;;;;;;10.48;1.70;;;10.10;99.90;;;;;;4995507;28;20085;-80
2023/12/28 07:25:51;;;;;;;15.52;3.05;;;10.10;99.90;;;;;;4998727;28;20100;-80
2023/12/28 07:28:17;;;;;;;15.38;2.72;;;10.20;99.90;;;;;;5014165;28;20112;-81
2023/12/28 07:30:43;;;;;;;20.52;2.92;;;10.20;99.90;;;;;;5014632;28;20056;-81
2023/12/28 07:33:09;;;;;;;13.65;3.42;;;10.20;99.90;;;;;;5013891;28;20056;-80
2023/12/28 07:35:34;;;;;;;21.33;3.38;;;10.20;99.90;;;;;;5014484;28;20383;-80
2023/12/28 07:38:00;;;;;;;18.15;3.13;;;10.20;99.90;;;;;;5002713;28;20064;-81
2023/12/28 07:40:26;;;;;;;15.70;2.42;;;10.20;99.90;;;;;;5014371;28;20044;-80
2023/12/28 07:42:52;;;;;;;15.80;2.28;;;10.20;99.90;;;;;;5025661;28;20037;-84
2023/12/28 07:45:22;;;;;;;16.80;3.10;;;10.20;99.90;;;;;;5034013;28;20049;-83
2023/12/28 07:47:49;;;;;;;20.25;3.20;;;10.20;99.90;;;;;;5028006;28;20054;-84
2023/12/28 07:50:15;;;;;;;14.75;2.78;;;10.10;99.90;;;;;;5014109;28;20073;-83
2023/12/28 07:52:42;;;;;;;23.00;3.75;;;10.10;99.90;;;;;;5013522;28;20088;-81
2023/12/28 07:55:08;;;;;;;19.52;3.67;;;10.10;99.90;;;;;;5013066;28;20086;-79
2023/12/28 07:57:35;;;;;;;14.20;2.17;;;10.10;99.90;;;;;;5014077;28;20046;-81
2023/12/28 08:00:01;;;;;;;15.45;3.58;;;10.20;99.90;;;;;;5007672;28;20053;-83
2023/12/28 08:02:27;;;;;;;19.13;2.88;;;10.20;99.90;;;;;;5013387;28;20485;-80
2023/12/28 08:04:53;;;;;;;10.43;2.47;;;10.20;99.90;;;;;;4997886;28;20106;-79
2023/12/28 08:07:18;;;;;;;19.52;3.08;;;10.20;99.90;;;;;;5013582;28;20073;-80
2023/12/28 08:09:44;;;;;;;15.15;2.70;;;10.20;99.90;;;;;;5013385;28;20049;-81
2023/12/28 08:12:10;;;;;;;22.13;3.40;;;10.20;99.90;;;;;;5013470;28;20046;-81
2023/12/28 08:14:36;;;;;;;17.35;3.40;;;10.20;99.90;;;;;;5013043;28;20042;-81
2023/12/28 08:17:01;;;;;;;17.10;3.28;;;10.20;99.90;;;;;;5013066;28;20077;-81
2023/12/28 08:19:27;;;;;;;13.60;2.88;;;10.20;99.90;;;;;;4998777;28;20053;-80
2023/12/28 08:21:52;;;;;;;15.18;3.03;;;10.20;99.90;;;;;;4994151;28;20113;-82
2023/12/28 08:24:18;;;;;;;17.50;2.90;;;10.30;99.90;;;;;;5009994;28;20054;-81
2023/12/28 08:26:44;;;;;;;13.30;3.35;;;10.30;99.90;;;;;;5013266;28;20128;-81
2023/12/28 08:29:11;;;;;;;17.05;3.13;;;10.30;99.90;;;;;;5012924;28;20149;-79
2023/12/28 08:31:36;;;;;;;18.23;2.70;;;10.30;99.90;;;;;;5018347;28;20501;-80
2023/12/28 08:34:02;;;;;;;22.25;3.67;;;10.30;99.90;;;;;;5002361;28;20089;-82
2023/12/28 08:36:28;;;;;;;17.77;3.17;;;10.30;99.90;;;;;;5002544;28;20065;-80
2023/12/28 08:38:53;;;;;;;19.13;3.95;;;10.30;99.90;;;;;;4993703;28;20050;-81
2023/12/28 08:41:26;;;;;;;18.33;3.30;;;10.30;99.90;;;;;;4993439;28;20113;-81
2023/12/28 08:43:53;;;;;;;20.35;3.50;;;10.30;99.90;;;;;;4993011;28;20397;-80
2023/12/28 08:46:20;;;;;;;18.25;2.53;;;10.30;99.90;;;;;;4993564;28;20056;-81
2023/12/28 08:48:46;;;;;;;15.55;3.85;;;10.30;99.90;;;;;;5009170;28;20085;-82
2023/12/28 08:51:11;;;;;;;17.77;3.15;;;10.30;99.90;;;;;;5012366;28;20469;-84
2023/12/28 08:53:37;;;;;;;17.38;2.90;;;10.30;99.90;;;;;;5012524;28;20042;-79
2023/12/28 08:56:13;;;;;;;17.08;3.05;;;10.40;99.90;;;;;;5012883;28;20054;-82
2023/12/28 08:58:39;;;;;;;33.70;4.95;;;10.40;99.90;;;;;;5013017;28;20053;-80
2023/12/28 09:01:04;;;;;;;17.63;2.80;;;10.40;99.90;;;;;;5012534;28;20401;-80
2023/12/28 09:03:30;;;;;;;18.40;3.63;;;10.40;99.90;;;;;;5012321;28;20049;-80
2023/12/28 09:05:55;;;;;;;23.50;4.50;;;10.40;99.90;;;;;;5021490;28;20539;-81
2023/12/28 09:08:21;;;;;;;19.02;3.47;;;10.40;99.90;;;;;;5016946;28;20042;-81
2023/12/28 09:10:47;;;;;;;15.48;3.13;;;10.40;99.90;;;;;;5004203;28;20144;-80
2023/12/28 09:13:19;;;;;;;20.17;3.92;;;10.40;99.90;;;;;;5012622;28;20725;-80
2023/12/28 09:15:45;;;;;;;19.85;4.40;;;10.40;99.90;;;;;;5012291;28;20053;-81
2023/12/28 09:18:11;;;;;;;23.45;3.47;;;10.50;99.90;;;;;;5012759;28;20046;-80
2023/12/28 09:20:37;;;;;;;18.70;3.60;;;10.40;99.90;;;;;;5012569;28;20045;-81
2023/12/28 09:23:03;;;;;;;17.45;3.22;;;10.40;99.90;;;;;;5012376;28;20629;-80
2023/12/28 09:25:28;;;;;;;18.02;3.47;;;10.40;99.90;;;;;;5012486;28;20052;-80
2023/12/28 09:27:54;;;;;;;23.70;4.07;;;10.40;99.90;;;;;;5012281;28;20115;-81
2023/12/28 09:30:19;;;;;;;22.17;3.55;;;10.40;99.90;;;;;;5012545;28;20050;-83
2023/12/28 09:32:45;;;;;;;17.90;2.65;;;10.40;99.90;;;;;;4997975;28;20057;-82
2023/12/28 09:35:11;;;;;;;23.23;3.88;;;10.40;99.90;;;;;;5016667;28;20502;-85
2023/12/28 09:37:36;;;;;;;22.65;2.92;;;10.40;99.90;;;;;;5012165;28;20120;-80
2023/12/28 09:40:03;;;;;;;21.85;4.03;;;10.40;99.90;;;;;;5012038;28;20437;-79
2023/12/28 09:42:58;;;;;;;19.83;3.80;;;10.40;99.90;;;;;;5026294;28;20053;-78
2023/12/28 09:45:24;;;;;;;17.35;3.20;;;10.40;99.90;;;;;;5026953;28;20140;-84
2023/12/28 09:47:50;;;;;;;20.13;3.20;;;10.30;99.90;;;;;;5032800;28;20466;-80
2023/12/28 09:50:18;;;;;;;14.07;2.90;;;10.30;99.90;;;;;;5031931;28;20481;-79
2023/12/28 09:52:43;;;;;;;17.27;3.55;;;10.30;99.90;;;;;;5031348;28;20041;-78
2023/12/28 09:55:09;;;;;;;24.95;4.35;;;10.30;99.90;;;;;;5026245;28;20041;-76
2023/12/28 09:57:36;;;;;;;17.35;3.15;;;10.30;99.90;;;;;;5011105;28;20140;-79
2023/12/28 10:00:03;;;;;;;19.83;3.33;;;10.40;99.90;;;;;;5002663;28;20082;-77
2023/12/28 10:02:30;;;;;;;16.10;2.90;;;10.40;99.90;;;;;;5003220;28;20045;-81
2023/12/28 10:04:55;;;;;;;16.10;2.63;;;10.50;99.90;;;;;;5007678;28;20522;-79
2023/12/28 10:07:21;;;;;;;20.15;3.10;;;10.40;99.90;;;;;;5013033;28;20054;-79
2023/12/28 10:09:47;;;;;;;17.23;3.13;;;10.40;99.90;;;;;;5010630;28;20050;-84
2023/12/28 10:12:14;;;;;;;26.48;2.88;;;10.50;99.90;;;;;;5010273;28;20046;-81
2023/12/28 10:14:40;;;;;;;14.57;2.40;;;10.50;99.90;;;;;;5014326;28;20069;-84
2023/12/28 10:17:06;;;;;;;18.35;2.63;;;10.50;99.90;;;;;;5010576;28;20081;-81
2023/12/28 10:19:31;;;;;;;21.25;3.17;;;10.50;99.90;;;;;;5011589;28;20046;-82
2023/12/28 10:21:57;;;;;;;23.48;3.70;;;10.50;99.90;;;;;;5012076;28;20466;-82
2023/12/28 10:24:23;;;;;;;25.75;4.53;;;10.50;99.90;;;;;;5014888;28;20493;-86
2023/12/28 10:26:49;;;;;;;14.80;2.40;;;10.50;99.90;;;;;;5007408;28;20735;-85
2023/12/28 10:29:15;;;;;;;19.95;3.40;;;10.60;99.90;;;;;;5004969;28;20128;-87
2023/12/28 10:31:43;;;;;;;19.48;3.45;;;10.60;99.90;;;;;;5025440;28;20116;-87
2023/12/28 10:34:09;;;;;;;21.75;3.80;;;10.60;99.90;;;;;;5007200;28;20057;-87
2023/12/28 10:36:36;;;;;;;18.88;2.90;;;10.60;99.90;;;;;;5015436;28;20045;-87
2023/12/28 10:39:04;;;;;;;20.25;3.47;;;10.60;99.90;;;;;;5015593;28;20053;-82
2023/12/28 10:41:32;;;;;;;17.05;2.85;;;10.60;99.90;;;;;;5014918;28;20046;-80
2023/12/28 10:44:07;;;;;;;25.20;3.63;;;10.70;99.90;;;;;;5015360;28;20042;-79
2023/12/28 10:46:41;;;;;;;17.92;4.07;;;10.70;99.90;;;;;;5015267;28;20253;-81
2023/12/28 10:49:14;;;;;;;19.63;3.38;;;10.70;99.90;;;;;;4999326;28;20187;-79
2023/12/28 10:51:48;;;;;;;20.67;3.78;;;10.70;99.90;;;;;;5016463;28;20050;-80
2023/12/28 10:54:27;;;;;;;28.77;3.72;;;10.70;99.90;;;;;;5013808;28;20054;-82
2023/12/28 10:57:27;;;;;;;17.35;3.92;;;10.80;99.90;;;;;;5011791;28;20105;-81
2023/12/28 11:00:11;;;;;;;16.55;3.10;;;10.80;99.90;;;;;;5012854;28;20058;-81
2023/12/28 11:02:51;;;;;;;20.05;3.72;;;10.80;99.90;;;;;;5011627;28;20159;-82
2023/12/28 11:05:19;;;;;;;17.65;3.65;;;10.70;99.90;;;;;;5014613;28;20052;-82
2023/12/28 11:07:47;;;;;;;24.70;3.88;;;10.70;99.90;;;;;;5015149;28;20046;-83
2023/12/28 11:10:14;;;;;;;18.52;3.78;;;10.70;99.90;;;;;;5014784;28;20068;-83
2023/12/28 11:12:40;;;;;;;17.42;3.00;;;10.70;99.90;;;;;;5014951;28;20042;-83
2023/12/28 11:15:08;;;;;;;17.23;3.97;;;10.70;99.90;;;;;;5014316;28;20104;-81
2023/12/28 11:17:37;;;;;;;22.23;3.78;;;10.70;99.90;;;;;;5014558;28;20762;-83
2023/12/28 11:20:05;;;;;;;27.42;4.05;;;10.70;99.90;;;;;;5014117;28;20518;-82
2023/12/28 11:22:31;;;;;;;17.17;3.40;;;10.80;99.90;;;;;;5014614;28;20543;-85
2023/12/28 11:24:58;;;;;;;24.85;4.93;;;10.70;99.90;;;;;;5014427;28;20081;-82
2023/12/28 11:27:24;;;;;;;18.33;3.15;;;10.70;99.90;;;;;;5013891;28;20432;-83
2023/12/28 11:29:51;;;;;;;19.92;3.15;;;10.70;99.90;;;;;;5014879;28;20042;-84
2023/12/28 11:32:19;;;;;;;17.67;3.00;;;10.70;99.90;;;;;;5013653;28;20787;-83
2023/12/28 11:34:45;;;;;;;19.92;3.10;;;10.70;99.90;;;;;;5014533;28;20131;-82
2023/12/28 11:37:20;;;;;;;19.73;3.67;;;10.70;99.90;;;;;;5014355;28;20506;-83
2023/12/28 11:39:49;;;;;;;16.08;3.33;;;10.60;99.90;;;;;;4998144;28;20049;-82
2023/12/28 11:42:20;;;;;;;20.52;3.88;;;10.70;99.90;;;;;;5012864;28;20041;-85
2023/12/28 11:44:46;;;;;;;24.70;4.03;;;10.60;99.90;;;;;;5014715;28;20180;-86
2023/12/28 11:47:22;;;;;;;17.48;3.60;;;10.60;99.90;;;;;;5011064;28;20508;-85
2023/12/28 11:49:51;;;;;;;17.38;2.72;;;10.60;99.90;;;;;;5009553;28;20050;-91
2023/12/28 11:52:29;;;;;;;17.70;2.90;;;10.60;99.90;;;;;;5014273;28;20046;-83
2023/12/28 11:54:55;;;;;;;22.58;3.88;;;10.60;99.90;;;;;;5014018;28;20061;-85
2023/12/28 11:57:21;;;;;;;29.45;4.75;;;10.70;99.90;;;;;;5013974;28;20050;-86
2023/12/28 11:59:53;;;;;;;22.55;3.45;;;10.70;99.90;;;;;;5014367;28;20049;-86
2023/12/28 12:02:19;;;;;;;24.20;3.67;;;10.60;99.90;;;;;;5013500;28;20715;-86
2023/12/28 12:04:45;;;;;;;20.90;3.45;;;10.70;99.90;;;;;;5013710;28;20422;-87
2023/12/28 12:07:11;;;;;;;17.50;3.20;;;10.70;99.90;;;;;;5011514;28;20049;-84
2023/12/28 12:09:36;;;;;;;21.08;3.92;;;10.70;99.90;;;;;;5009723;28;20104;-84
2023/12/28 12:12:03;;;;;;;21.80;3.03;;;10.70;99.90;;;;;;5014023;28;20049;-87
2023/12/28 12:14:29;;;;;;;26.92;4.32;;;10.70;99.90;;;;;;5003072;28;20418;-87
2023/12/28 12:16:56;;;;;;;22.38;3.75;;;10.70;99.90;;;;;;5010454;28;20042;-88
2023/12/28 12:19:26;;;;;;;24.75;3.85;;;10.70;99.90;;;;;;5013455;28;20046;-88
2023/12/28 12:21:55;;;;;;;15.05;2.90;;;10.60;99.90;;;;;;5013829;28;20053;-88
2023/12/28 12:24:22;;;;;;;24.88;3.65;;;10.70;99.90;;;;;;5013831;28;20073;-88
2023/12/28 12:26:48;;;;;;;28.58;4.43;;;10.60;99.90;;;;;;5013631;28;20116;-86
2023/12/28 12:29:14;;;;;;;22.83;3.05;;;10.60;99.90;;;;;;5014039;28;20049;-90
2023/12/28 12:31:41;;;;;;;22.42;3.60;;;10.80;99.90;;;;;;5013829;28;20065;-88
2023/12/28 12:34:10;;;;;;;26.25;3.85;;;10.60;99.90;;;;;;4997718;28;20776;-89
2023/12/28 12:36:37;;;;;;;18.05;3.55;;;10.60;99.90;;;;;;5015231;28;20050;-88
2023/12/28 12:39:07;;;;;;;20.85;3.78;;;10.60;99.90;;;;;;4998994;28;20050;-92
2023/12/28 12:41:35;;;;;;;22.20;3.25;;;10.70;99.90;;;;;;5014442;28;20125;-92